Kelso, Tennessee
Current Conditions -  °F | °C
As of 4:15 PM on Tuesday 21 Oct 2014 (Local Time) from KFYM Reporting Station
Clear Clear  
Wind Chill: 70°   Ceiling: Unl
Heat Index: 70°   Visibility: 10mi
Dew Point: 43°   Wind: 9mph
Humidity: 38%   Direction: 320°NW
Pressure: 30.01"   Gusts: NA
Location:  35.13°N, 86.47°W
Report Text: KFYM 212115Z AUTO 32008KT 10SM CLR 21/06 A3001 RMK
Loading
Personal Weather Stations






























Interactive Weather Map
Tropical Storm Tracking
New forecast layout! Learn more

10-Day Weather Forecast

Advertisements
Track Severe Weather on mobile